Terminal Aerodrome Forecast
Issued by NWS

Home | Current Version | Previous Version | Text Only | Print | Product List | Glossary On
Versions: 1 2 3 4 5 6 7 8 9 10 11 12
196
FTUS44 KBMX 050539
TAFANB
TAF
KANB 050539Z 0506/0606 03006KT 5SM -DZ BR OVC007
     FM050900 03006KT 3SM -RA BR OVC004
     FM051700 06005KT 4SM -RA BR OVC007=

USA.gov is the U.S. government's official web portal to all federal, state and local government web resources and services.